sensor_id;sensor_type;location;lat;lon;timestamp;pressure;altitude;pressure_sealevel;temperature;humidity
25650;BME280;13505;45.196;5.696;2022-07-29T04:01:19;98967.22;;;23.86;43.14
25650;BME280;13505;45.196;5.696;2022-07-29T04:06:10;98970.13;;;23.93;43.08
25650;BME280;13505;45.196;5.696;2022-07-29T04:11:01;98971.44;;;23.89;43.44
25650;BME280;13505;45.196;5.696;2022-07-29T04:15:51;98987.19;;;23.75;43.82
25650;BME280;13505;45.196;5.696;2022-07-29T04:20:42;98983.97;;;23.72;43.69
25650;BME280;13505;45.196;5.696;2022-07-29T04:25:32;98985.31;;;23.67;43.93
25650;BME280;13505;45.196;5.696;2022-07-29T04:30:23;98991.03;;;23.73;43.21
25650;BME280;13505;45.196;5.696;2022-07-29T04:35:13;98996.50;;;23.54;44.16
25650;BME280;13505;45.196;5.696;2022-07-29T04:40:04;99001.13;;;23.70;43.63
25650;BME280;13505;45.196;5.696;2022-07-29T04:44:54;98998.81;;;23.76;43.61
25650;BME280;13505;45.196;5.696;2022-07-29T04:49:45;98998.34;;;23.80;43.42
25650;BME280;13505;45.196;5.696;2022-07-29T04:54:35;99009.31;;;23.87;43.07
25650;BME280;13505;45.196;5.696;2022-07-29T04:59:25;99003.41;;;23.83;43.67
25650;BME280;13505;45.196;5.696;2022-07-29T05:04:16;99009.94;;;23.81;43.67
25650;BME280;13505;45.196;5.696;2022-07-29T05:09:07;99025.56;;;23.77;43.89
25650;BME280;13505;45.196;5.696;2022-07-29T05:13:57;99036.06;;;23.89;43.63
25650;BME280;13505;45.196;5.696;2022-07-29T05:18:47;99031.66;;;24.06;43.52
25650;BME280;13505;45.196;5.696;2022-07-29T05:23:37;99007.66;;;24.37;42.68
25650;BME280;13505;45.196;5.696;2022-07-29T05:28:28;99016.16;;;24.67;42.54
25650;BME280;13505;45.196;5.696;2022-07-29T05:33:18;99024.59;;;24.64;42.46
25650;BME280;13505;45.196;5.696;2022-07-29T05:38:08;99031.66;;;24.74;41.97
25650;BME280;13505;45.196;5.696;2022-07-29T05:42:59;99042.00;;;24.87;41.72
25650;BME280;13505;45.196;5.696;2022-07-29T05:47:49;99024.31;;;24.92;41.39
25650;BME280;13505;45.196;5.696;2022-07-29T05:52:39;99032.41;;;25.01;41.12
25650;BME280;13505;45.196;5.696;2022-07-29T05:57:30;99032.41;;;25.26;40.67
25650;BME280;13505;45.196;5.696;2022-07-29T06:02:21;99042.38;;;25.50;40.47
25650;BME280;13505;45.196;5.696;2022-07-29T06:07:11;99037.81;;;25.34;41.08
25650;BME280;13505;45.196;5.696;2022-07-29T06:12:02;99042.53;;;25.40;40.71
25650;BME280;13505;45.196;5.696;2022-07-29T06:16:53;99047.06;;;25.48;40.37
25650;BME280;13505;45.196;5.696;2022-07-29T06:21:46;99036.81;;;25.52;40.89
25650;BME280;13505;45.196;5.696;2022-07-29T06:26:36;99041.69;;;25.56;40.45
25650;BME280;13505;45.196;5.696;2022-07-29T06:31:27;99044.00;;;25.84;40.04
25650;BME280;13505;45.196;5.696;2022-07-29T06:36:17;99033.72;;;26.28;38.33
25650;BME280;13505;45.196;5.696;2022-07-29T06:41:08;99050.78;;;26.28;37.97
25650;BME280;13505;45.196;5.696;2022-07-29T06:46:04;99050.88;;;26.75;37.62
25650;BME280;13505;45.196;5.696;2022-07-29T06:50:55;99055.84;;;26.95;36.81
25650;BME280;13505;45.196;5.696;2022-07-29T06:55:45;99061.28;;;26.86;36.89
25650;BME280;13505;45.196;5.696;2022-07-29T07:00:35;99068.13;;;26.74;37.03
25650;BME280;13505;45.196;5.696;2022-07-29T07:05:26;99063.75;;;26.73;36.97
25650;BME280;13505;45.196;5.696;2022-07-29T07:10:16;99071.59;;;26.59;37.59
25650;BME280;13505;45.196;5.696;2022-07-29T07:15:07;99070.88;;;26.66;37.42
25650;BME280;13505;45.196;5.696;2022-07-29T07:19:57;99078.94;;;26.74;37.31
25650;BME280;13505;45.196;5.696;2022-07-29T07:24:48;99087.00;;;26.82;37.45
25650;BME280;13505;45.196;5.696;2022-07-29T07:29:38;99079.38;;;26.94;37.01
25650;BME280;13505;45.196;5.696;2022-07-29T07:34:31;99085.16;;;26.83;37.09
25650;BME280;13505;45.196;5.696;2022-07-29T07:39:21;99080.09;;;26.80;37.23
25650;BME280;13505;45.196;5.696;2022-07-29T07:44:11;99075.09;;;26.68;37.87
25650;BME280;13505;45.196;5.696;2022-07-29T07:49:02;99088.53;;;26.53;38.01
25650;BME280;13505;45.196;5.696;2022-07-29T07:53:52;99081.25;;;26.54;37.61
25650;BME280;13505;45.196;5.696;2022-07-29T07:58:42;99075.50;;;26.57;37.43
25650;BME280;13505;45.196;5.696;2022-07-29T08:03:33;99082.66;;;25.68;40.64
25650;BME280;13505;45.196;5.696;2022-07-29T08:08:23;99080.84;;;25.44;40.74
25650;BME280;13505;45.196;5.696;2022-07-29T08:13:14;99089.34;;;26.14;39.08
25650;BME280;13505;45.196;5.696;2022-07-29T08:18:04;99095.22;;;26.66;38.00
25650;BME280;13505;45.196;5.696;2022-07-29T08:22:54;99099.13;;;26.23;39.24
25650;BME280;13505;45.196;5.696;2022-07-29T08:27:45;99101.47;;;26.18;39.74
25650;BME280;13505;45.196;5.696;2022-07-29T08:32:35;99127.41;;;25.87;40.28
25650;BME280;13505;45.196;5.696;2022-07-29T08:37:26;99158.09;;;26.11;40.34
25650;BME280;13505;45.196;5.696;2022-07-29T08:42:16;99214.84;;;25.95;39.65
25650;BME280;13505;45.196;5.696;2022-07-29T08:47:07;99237.44;;;25.52;43.18
25650;BME280;13505;45.196;5.696;2022-07-29T08:51:58;99259.56;;;25.64;46.29
25650;BME280;13505;45.196;5.696;2022-07-29T08:56:50;99284.53;;;25.15;47.32
25650;BME280;13505;45.196;5.696;2022-07-29T09:01:43;99304.44;;;24.16;53.61
25650;BME280;13505;45.196;5.696;2022-07-29T09:06:37;99323.19;;;23.72;56.99
25650;BME280;13505;45.196;5.696;2022-07-29T09:11:27;99336.91;;;23.78;61.06
25650;BME280;13505;45.196;5.696;2022-07-29T09:16:18;99376.06;;;23.45;62.46
25650;BME280;13505;45.196;5.696;2022-07-29T09:21:14;99379.72;;;23.53;62.44
25650;BME280;13505;45.196;5.696;2022-07-29T09:26:28;99401.38;;;23.52;61.42
25650;BME280;13505;45.196;5.696;2022-07-29T09:31:30;99412.66;;;23.65;61.35
25650;BME280;13505;45.196;5.696;2022-07-29T09:36:22;99413.00;;;24.08;59.46
25650;BME280;13505;45.196;5.696;2022-07-29T09:41:12;99422.47;;;23.84;62.86
25650;BME280;13505;45.196;5.696;2022-07-29T09:46:13;99416.34;;;23.92;60.51
25650;BME280;13505;45.196;5.696;2022-07-29T09:51:03;99413.75;;;23.73;61.84
25650;BME280;13505;45.196;5.696;2022-07-29T09:55:56;99418.75;;;23.67;63.25
25650;BME280;13505;45.196;5.696;2022-07-29T10:00:48;99410.63;;;23.49;66.30
25650;BME280;13505;45.196;5.696;2022-07-29T10:05:39;99415.09;;;23.31;67.25
25650;BME280;13505;45.196;5.696;2022-07-29T10:10:32;99409.72;;;23.21;66.29
25650;BME280;13505;45.196;5.696;2022-07-29T10:15:30;99406.72;;;23.24;67.14
25650;BME280;13505;45.196;5.696;2022-07-29T10:20:23;99403.78;;;23.17;67.93
25650;BME280;13505;45.196;5.696;2022-07-29T10:25:14;99395.50;;;22.91;69.88
25650;BME280;13505;45.196;5.696;2022-07-29T10:30:06;99398.06;;;22.82;69.52
25650;BME280;13505;45.196;5.696;2022-07-29T10:35:17;99397.91;;;22.74;68.54
25650;BME280;13505;45.196;5.696;2022-07-29T10:40:28;99398.91;;;22.73;69.19
25650;BME280;13505;45.196;5.696;2022-07-29T10:45:39;99394.22;;;22.85;68.33
25650;BME280;13505;45.196;5.696;2022-07-29T10:50:53;99407.94;;;22.82;67.71
25650;BME280;13505;45.196;5.696;2022-07-29T10:55:45;99411.50;;;22.82;69.35
25650;BME280;13505;45.196;5.696;2022-07-29T11:00:38;99412.09;;;23.24;66.49
25650;BME280;13505;45.196;5.696;2022-07-29T11:05:29;99416.16;;;23.00;67.24
25650;BME280;13505;45.196;5.696;2022-07-29T11:10:23;99423.84;;;23.33;66.13
25650;BME280;13505;45.196;5.696;2022-07-29T11:15:15;99419.19;;;23.15;67.39
25650;BME280;13505;45.196;5.696;2022-07-29T11:20:47;99409.19;;;23.55;65.90
25650;BME280;13505;45.196;5.696;2022-07-29T11:25:38;99396.59;;;23.08;69.96
25650;BME280;13505;45.196;5.696;2022-07-29T11:35:39;99379.69;;;22.58;72.27
25650;BME280;13505;45.196;5.696;2022-07-29T11:40:29;99374.16;;;21.91;76.54
25650;BME280;13505;45.196;5.696;2022-07-29T11:45:21;99379.41;;;22.22;74.14
25650;BME280;13505;45.196;5.696;2022-07-29T11:50:26;99387.06;;;22.56;72.28
25650;BME280;13505;45.196;5.696;2022-07-29T11:55:19;99393.84;;;22.70;71.80
25650;BME280;13505;45.196;5.696;2022-07-29T12:00:10;99395.19;;;22.94;70.07
25650;BME280;13505;45.196;5.696;2022-07-29T12:05:00;99391.19;;;23.08;68.37
25650;BME280;13505;45.196;5.696;2022-07-29T12:09:51;99379.09;;;22.84;69.19
25650;BME280;13505;45.196;5.696;2022-07-29T12:14:42;99365.50;;;22.85;68.39
25650;BME280;13505;45.196;5.696;2022-07-29T12:19:42;99359.25;;;22.95;67.35
25650;BME280;13505;45.196;5.696;2022-07-29T12:24:43;99362.81;;;23.33;67.21
25650;BME280;13505;45.196;5.696;2022-07-29T12:29:34;99355.91;;;23.59;67.08
25650;BME280;13505;45.196;5.696;2022-07-29T12:34:27;99359.88;;;22.59;70.08
25650;BME280;13505;45.196;5.696;2022-07-29T12:39:18;99358.19;;;22.68;70.69
25650;BME280;13505;45.196;5.696;2022-07-29T12:44:10;99357.47;;;22.66;73.54
25650;BME280;13505;45.196;5.696;2022-07-29T12:49:00;99353.28;;;23.01;73.24
25650;BME280;13505;45.196;5.696;2022-07-29T12:54:04;99352.44;;;23.66;70.96
25650;BME280;13505;45.196;5.696;2022-07-29T12:58:54;99346.75;;;23.88;68.93
25650;BME280;13505;45.196;5.696;2022-07-29T13:03:56;99342.00;;;23.81;68.64
25650;BME280;13505;45.196;5.696;2022-07-29T13:09:03;99330.34;;;23.35;67.42
25650;BME280;13505;45.196;5.696;2022-07-29T13:13:55;99320.47;;;24.00;66.64
25650;BME280;13505;45.196;5.696;2022-07-29T13:18:45;99328.31;;;23.47;66.98
25650;BME280;13505;45.196;5.696;2022-07-29T13:23:35;99316.06;;;23.80;66.03
25650;BME280;13505;45.196;5.696;2022-07-29T13:28:26;99317.13;;;23.88;65.19
25650;BME280;13505;45.196;5.696;2022-07-29T13:33:16;99313.16;;;24.55;63.75
25650;BME280;13505;45.196;5.696;2022-07-29T13:38:06;99294.78;;;24.50;63.32
25650;BME280;13505;45.196;5.696;2022-07-29T13:42:57;99280.41;;;24.94;61.65
25650;BME280;13505;45.196;5.696;2022-07-29T13:47:47;99282.38;;;24.57;61.27
25650;BME280;13505;45.196;5.696;2022-07-29T13:52:38;99275.28;;;25.26;60.06
25650;BME280;13505;45.196;5.696;2022-07-29T13:57:28;99264.53;;;25.34;59.05
25650;BME280;13505;45.196;5.696;2022-07-29T14:02:19;99257.91;;;24.85;60.43
25650;BME280;13505;45.196;5.696;2022-07-29T14:07:09;99255.59;;;24.64;61.21
25650;BME280;13505;45.196;5.696;2022-07-29T14:12:00;99238.00;;;25.13;59.89
25650;BME280;13505;45.196;5.696;2022-07-29T14:16:51;99233.75;;;25.10;60.33
25650;BME280;13505;45.196;5.696;2022-07-29T14:21:41;99236.09;;;25.05;61.54
25650;BME280;13505;45.196;5.696;2022-07-29T14:26:32;99218.53;;;25.52;58.46
25650;BME280;13505;45.196;5.696;2022-07-29T14:31:22;99198.97;;;25.67;58.02
25650;BME280;13505;45.196;5.696;2022-07-29T14:36:12;99203.19;;;25.77;58.22
25650;BME280;13505;45.196;5.696;2022-07-29T14:41:03;99200.16;;;25.64;57.76
25650;BME280;13505;45.196;5.696;2022-07-29T14:45:54;99208.41;;;25.54;57.91
25650;BME280;13505;45.196;5.696;2022-07-29T14:50:44;99196.91;;;25.35;59.02
25650;BME280;13505;45.196;5.696;2022-07-29T14:55:34;99195.09;;;25.77;58.68
25650;BME280;13505;45.196;5.696;2022-07-29T15:00:25;99188.16;;;25.50;58.39
25650;BME280;13505;45.196;5.696;2022-07-29T15:05:16;99183.59;;;25.67;58.34
25650;BME280;13505;45.196;5.696;2022-07-29T15:10:07;99170.75;;;26.27;56.35
25650;BME280;13505;45.196;5.696;2022-07-29T15:14:57;99181.59;;;26.02;56.56
25650;BME280;13505;45.196;5.696;2022-07-29T15:19:48;99173.44;;;26.27;56.41
25650;BME280;13505;45.196;5.696;2022-07-29T15:24:38;99163.44;;;26.44;54.78
25650;BME280;13505;45.196;5.696;2022-07-29T15:29:29;99162.97;;;26.08;54.92
25650;BME280;13505;45.196;5.696;2022-07-29T15:34:19;99160.13;;;25.92;55.28
25650;BME280;13505;45.196;5.696;2022-07-29T15:39:10;99169.75;;;25.87;54.63
25650;BME280;13505;45.196;5.696;2022-07-29T15:44:01;99166.88;;;26.05;54.50
25650;BME280;13505;45.196;5.696;2022-07-29T15:48:51;99154.19;;;26.22;53.74
25650;BME280;13505;45.196;5.696;2022-07-29T15:53:41;99155.47;;;26.43;52.46
25650;BME280;13505;45.196;5.696;2022-07-29T15:58:32;99149.09;;;26.36;51.89
25650;BME280;13505;45.196;5.696;2022-07-29T16:03:22;99148.38;;;26.50;50.20
25650;BME280;13505;45.196;5.696;2022-07-29T16:08:14;99145.56;;;26.27;53.68
25650;BME280;13505;45.196;5.696;2022-07-29T16:13:04;99131.22;;;26.26;52.80
25650;BME280;13505;45.196;5.696;2022-07-29T16:17:54;99136.69;;;26.50;51.56
25650;BME280;13505;45.196;5.696;2022-07-29T16:22:45;99132.31;;;26.48;51.44
25650;BME280;13505;45.196;5.696;2022-07-29T16:27:35;99129.47;;;26.42;52.06
25650;BME280;13505;45.196;5.696;2022-07-29T16:32:26;99122.75;;;26.29;49.37
25650;BME280;13505;45.196;5.696;2022-07-29T16:37:16;99123.22;;;26.41;49.28
25650;BME280;13505;45.196;5.696;2022-07-29T16:42:06;99121.25;;;26.67;49.66
25650;BME280;13505;45.196;5.696;2022-07-29T16:46:57;99118.06;;;26.63;49.88
25650;BME280;13505;45.196;5.696;2022-07-29T16:51:47;99119.25;;;26.60;49.44
25650;BME280;13505;45.196;5.696;2022-07-29T16:56:38;99120.84;;;26.38;50.50
25650;BME280;13505;45.196;5.696;2022-07-29T17:01:28;99129.03;;;26.30;49.76
25650;BME280;13505;45.196;5.696;2022-07-29T17:06:18;99122.72;;;26.38;49.15
25650;BME280;13505;45.196;5.696;2022-07-29T17:11:09;99125.25;;;26.39;49.07
25650;BME280;13505;45.196;5.696;2022-07-29T17:15:59;99128.78;;;26.48;47.93
25650;BME280;13505;45.196;5.696;2022-07-29T17:20:49;99129.81;;;26.47;47.89
25650;BME280;13505;45.196;5.696;2022-07-29T17:25:40;99127.50;;;26.27;47.23
25650;BME280;13505;45.196;5.696;2022-07-29T17:30:30;99138.97;;;26.38;48.10
25650;BME280;13505;45.196;5.696;2022-07-29T17:35:20;99141.31;;;26.32;47.63
25650;BME280;13505;45.196;5.696;2022-07-29T17:40:29;99150.50;;;26.06;46.92
25650;BME280;13505;45.196;5.696;2022-07-29T17:45:19;99152.53;;;25.96;47.67
25650;BME280;13505;45.196;5.696;2022-07-29T17:50:10;99161.16;;;25.83;47.90
25650;BME280;13505;45.196;5.696;2022-07-29T17:55:00;99157.59;;;25.91;48.29
25650;BME280;13505;45.196;5.696;2022-07-29T17:59:51;99157.94;;;25.96;48.26
25650;BME280;13505;45.196;5.696;2022-07-29T18:04:41;99157.78;;;25.98;48.47
25650;BME280;13505;45.196;5.696;2022-07-29T18:09:33;99161.97;;;26.00;50.77
25650;BME280;13505;45.196;5.696;2022-07-29T18:14:23;99170.59;;;25.96;50.92
25650;BME280;13505;45.196;5.696;2022-07-29T18:19:14;99182.75;;;25.91;51.97
25650;BME280;13505;45.196;5.696;2022-07-29T18:24:05;99184.94;;;25.80;51.78
25650;BME280;13505;45.196;5.696;2022-07-29T18:28:56;99194.41;;;25.75;52.36
25650;BME280;13505;45.196;5.696;2022-07-29T18:33:46;99195.94;;;25.78;52.05
25650;BME280;13505;45.196;5.696;2022-07-29T18:38:36;99200.31;;;25.71;52.26
25650;BME280;13505;45.196;5.696;2022-07-29T18:43:27;99200.16;;;25.64;52.25
25650;BME280;13505;45.196;5.696;2022-07-29T18:48:17;99207.41;;;25.63;52.79
25650;BME280;13505;45.196;5.696;2022-07-29T18:53:08;99217.88;;;25.58;52.93
25650;BME280;13505;45.196;5.696;2022-07-29T18:57:58;99213.31;;;25.50;53.62
25650;BME280;13505;45.196;5.696;2022-07-29T19:02:48;99222.44;;;25.49;53.12
25650;BME280;13505;45.196;5.696;2022-07-29T19:07:39;99218.31;;;25.45;54.50
25650;BME280;13505;45.196;5.696;2022-07-29T19:12:29;99223.06;;;25.43;53.20
25650;BME280;13505;45.196;5.696;2022-07-29T19:17:20;99226.09;;;25.40;54.68
25650;BME280;13505;45.196;5.696;2022-07-29T19:22:10;99224.38;;;25.31;56.28
25650;BME280;13505;45.196;5.696;2022-07-29T19:27:02;99234.50;;;25.29;55.65
25650;BME280;13505;45.196;5.696;2022-07-29T19:31:52;99233.97;;;25.25;55.38
25650;BME280;13505;45.196;5.696;2022-07-29T19:36:43;99239.38;;;25.25;55.44
25650;BME280;13505;45.196;5.696;2022-07-29T19:41:33;99240.69;;;25.21;55.66
25650;BME280;13505;45.196;5.696;2022-07-29T19:46:24;99263.25;;;25.12;55.52
25650;BME280;13505;45.196;5.696;2022-07-29T19:51:17;99268.94;;;25.00;57.32
25650;BME280;13505;45.196;5.696;2022-07-29T19:56:07;99260.84;;;24.92;58.62
25650;BME280;13505;45.196;5.696;2022-07-29T20:00:58;99257.56;;;24.80;58.33
25650;BME280;13505;45.196;5.696;2022-07-29T20:05:48;99272.00;;;24.71;59.21
25650;BME280;13505;45.196;5.696;2022-07-29T20:10:40;99278.88;;;24.65;59.45
25650;BME280;13505;45.196;5.696;2022-07-29T20:15:30;99283.72;;;24.61;60.19
25650;BME280;13505;45.196;5.696;2022-07-29T20:20:21;99287.38;;;24.52;60.40
25650;BME280;13505;45.196;5.696;2022-07-29T20:25:12;99295.44;;;24.44;61.07
25650;BME280;13505;45.196;5.696;2022-07-29T20:30:05;99300.50;;;24.47;60.82
25650;BME280;13505;45.196;5.696;2022-07-29T20:34:55;99310.06;;;24.41;60.56
25650;BME280;13505;45.196;5.696;2022-07-29T20:39:45;99293.72;;;24.43;60.98
25650;BME280;13505;45.196;5.696;2022-07-29T20:44:36;99306.03;;;24.45;60.61
25650;BME280;13505;45.196;5.696;2022-07-29T20:49:27;99299.31;;;24.23;62.07
25650;BME280;13505;45.196;5.696;2022-07-29T20:54:17;99301.25;;;24.13;61.81
25650;BME280;13505;45.196;5.696;2022-07-29T20:59:08;99290.94;;;24.08;61.28
25650;BME280;13505;45.196;5.696;2022-07-29T21:03:59;99286.44;;;23.98;64.19
25650;BME280;13505;45.196;5.696;2022-07-29T21:08:50;99283.66;;;23.90;63.74
25650;BME280;13505;45.196;5.696;2022-07-29T21:13:40;99290.19;;;23.88;62.83
25650;BME280;13505;45.196;5.696;2022-07-29T21:18:33;99290.59;;;23.75;62.41
25650;BME280;13505;45.196;5.696;2022-07-29T21:23:26;99292.75;;;23.71;62.48
25650;BME280;13505;45.196;5.696;2022-07-29T21:28:17;99293.53;;;23.63;63.99
25650;BME280;13505;45.196;5.696;2022-07-29T21:33:16;99298.81;;;23.55;62.98
25650;BME280;13505;45.196;5.696;2022-07-29T21:38:07;99300.06;;;23.33;65.19
25650;BME280;13505;45.196;5.696;2022-07-29T21:42:57;99301.94;;;23.22;64.78
25650;BME280;13505;45.196;5.696;2022-07-29T21:47:47;99313.00;;;23.19;65.18
25650;BME280;13505;45.196;5.696;2022-07-29T21:52:38;99316.03;;;23.06;66.93
25650;BME280;13505;45.196;5.696;2022-07-29T21:57:28;99311.13;;;22.92;66.96
